createdAt,value
2024-02-16T00:00:10.369Z,29.08
2024-02-16T00:01:10.354Z,29.09
2024-02-16T00:02:10.298Z,29.01
2024-02-16T00:03:10.388Z,29.05
2024-02-16T00:04:11.141Z,29.01
2024-02-16T00:05:10.378Z,29.05
2024-02-16T00:06:10.448Z,29.05
2024-02-16T00:07:10.395Z,29.04
2024-02-16T00:08:10.346Z,29.02
2024-02-16T00:09:10.364Z,29.02
2024-02-16T00:10:10.372Z,29.03
2024-02-16T00:11:10.346Z,29.09
2024-02-16T00:12:10.388Z,29.04
2024-02-16T00:13:10.333Z,29.04
2024-02-16T00:14:10.344Z,29.08
2024-02-16T00:15:10.367Z,29.09
2024-02-16T00:16:10.328Z,29.02
2024-02-16T00:17:10.322Z,29.05
2024-02-16T00:18:10.432Z,29.08
2024-02-16T00:19:10.421Z,29.06
2024-02-16T00:20:10.372Z,29.06
2024-02-16T00:21:10.372Z,29.04
2024-02-16T00:22:10.331Z,28.99
2024-02-16T00:23:10.357Z,29.08
2024-02-16T00:24:10.436Z,29.03
2024-02-16T00:25:10.384Z,29.05
2024-02-16T00:26:10.420Z,29.02
2024-02-16T00:27:10.591Z,29.02
2024-02-16T00:28:10.650Z,28.99
2024-02-16T00:29:10.623Z,29.03
2024-02-16T00:30:10.741Z,29.06
2024-02-16T00:31:10.820Z,29.05
2024-02-16T00:32:10.862Z,28.99
2024-02-16T00:33:10.976Z,29.05
2024-02-16T00:34:11.034Z,28.99
2024-02-16T00:35:11.069Z,29.05
2024-02-16T00:36:11.261Z,29.03
2024-02-16T00:37:11.274Z,29.04
2024-02-16T00:38:11.220Z,29.05
2024-02-16T00:39:11.336Z,29.06
2024-02-16T00:40:11.359Z,29.05
2024-02-16T00:41:11.453Z,29.06
2024-02-16T00:42:11.560Z,29.06
2024-02-16T00:43:11.554Z,29.03
2024-02-16T00:44:11.630Z,29.08
2024-02-16T00:45:11.764Z,29.05
2024-02-16T00:46:11.745Z,29.05
2024-02-16T00:47:11.825Z,29.00
2024-02-16T00:48:11.984Z,29.03
2024-02-16T00:49:12.137Z,29.02
2024-02-16T00:50:12.026Z,29.05
2024-02-16T00:51:12.148Z,29.06
2024-02-16T00:52:12.232Z,29.02
2024-02-16T00:53:12.271Z,29.03
2024-02-16T00:54:12.347Z,29.06
2024-02-16T00:55:12.428Z,29.09
2024-02-16T00:56:12.511Z,29.12
2024-02-16T00:57:12.531Z,29.03
2024-02-16T00:58:12.634Z,29.07
2024-02-16T00:59:12.728Z,29.06
2024-02-16T01:00:12.832Z,29.05
2024-02-16T01:01:12.906Z,29.02
2024-02-16T01:02:12.857Z,29.06
2024-02-16T01:03:12.974Z,29.06
2024-02-16T01:04:13.030Z,29.06
2024-02-16T01:05:13.118Z,29.09
2024-02-16T01:06:13.159Z,29.02
2024-02-16T01:07:13.277Z,29.05
2024-02-16T01:08:13.286Z,29.03
2024-02-16T01:09:13.384Z,29.12
2024-02-16T01:10:13.471Z,29.05
2024-02-16T01:11:13.493Z,29.07
2024-02-16T01:12:13.623Z,29.09
2024-02-16T01:13:13.639Z,29.09
2024-02-16T01:14:13.742Z,29.05
2024-02-16T01:15:13.836Z,28.96
2024-02-16T01:16:13.855Z,29.04
2024-02-16T01:17:13.899Z,29.05
2024-02-16T01:18:14.063Z,29.05
2024-02-16T01:19:14.154Z,29.08
2024-02-16T01:20:14.186Z,29.11
2024-02-16T01:21:14.235Z,29.05
2024-02-16T01:22:14.240Z,29.13
2024-02-16T01:23:14.305Z,29.14
2024-02-16T01:24:14.440Z,29.10
2024-02-16T01:25:14.477Z,29.07
2024-02-16T01:26:14.523Z,29.10
2024-02-16T01:27:14.611Z,29.04
2024-02-16T01:28:14.651Z,29.06
2024-02-16T01:29:14.738Z,29.08
2024-02-16T01:30:14.857Z,29.06
2024-02-16T01:31:14.850Z,29.08
2024-02-16T01:32:14.903Z,29.11
2024-02-16T01:33:15.038Z,29.10
2024-02-16T01:34:15.161Z,29.03
2024-02-16T01:35:15.250Z,29.07
2024-02-16T01:36:15.322Z,29.08
2024-02-16T01:37:15.271Z,29.08
2024-02-16T01:38:15.356Z,29.10
2024-02-16T01:39:15.454Z,29.11
2024-02-16T01:40:15.762Z,29.08
2024-02-16T01:41:15.549Z,29.05
2024-02-16T01:42:15.673Z,29.07
2024-02-16T01:43:15.690Z,29.08
2024-02-16T01:44:15.751Z,29.04
2024-02-16T01:45:15.850Z,29.10
2024-02-16T01:46:16.673Z,29.05
2024-02-16T01:47:15.955Z,29.08
2024-02-16T01:48:16.198Z,29.10
2024-02-16T01:49:16.200Z,29.11
2024-02-16T01:50:16.202Z,29.04
2024-02-16T01:51:16.297Z,29.11
2024-02-16T01:52:16.303Z,29.10
2024-02-16T01:53:16.369Z,29.02
2024-02-16T01:54:16.484Z,29.10
2024-02-16T01:55:16.489Z,29.10
2024-02-16T01:56:16.567Z,29.05
2024-02-16T01:57:16.667Z,29.11
2024-02-16T01:58:16.703Z,29.07
2024-02-16T01:59:16.765Z,29.05
2024-02-16T02:00:16.924Z,29.11
2024-02-16T02:01:16.929Z,29.10
2024-02-16T02:02:16.995Z,29.08
2024-02-16T02:03:17.201Z,29.11
2024-02-16T02:04:17.282Z,29.04
2024-02-16T02:05:17.456Z,29.11
2024-02-16T02:06:17.392Z,29.11
2024-02-16T02:07:17.552Z,29.04
2024-02-16T02:08:17.388Z,29.02
2024-02-16T02:09:17.587Z,29.08
2024-02-16T02:10:17.511Z,29.07
2024-02-16T02:11:17.653Z,29.11
2024-02-16T02:12:17.688Z,29.12
2024-02-16T02:13:17.699Z,29.11
2024-02-16T02:14:17.791Z,29.14
2024-02-16T02:15:17.878Z,29.11
2024-02-16T02:16:17.998Z,29.08
2024-02-16T02:17:18.046Z,29.05
2024-02-16T02:18:18.201Z,29.12
2024-02-16T02:19:18.340Z,29.12
2024-02-16T02:20:18.228Z,29.08
2024-02-16T02:21:18.325Z,29.14
2024-02-16T02:22:18.370Z,29.14
2024-02-16T02:23:18.425Z,29.06
2024-02-16T02:24:18.491Z,29.12
2024-02-16T02:25:18.534Z,29.11
2024-02-16T02:26:18.622Z,29.16
2024-02-16T02:27:18.765Z,29.14
2024-02-16T02:28:18.783Z,29.10
2024-02-16T02:29:18.843Z,29.12
2024-02-16T02:30:18.992Z,29.12
2024-02-16T02:31:18.962Z,29.12
2024-02-16T02:32:19.035Z,29.13
2024-02-16T02:33:19.336Z,29.09
2024-02-16T02:34:19.194Z,29.08
2024-02-16T02:35:19.259Z,29.06
2024-02-16T02:36:19.332Z,29.05
2024-02-16T02:37:19.369Z,29.13
2024-02-16T02:38:19.449Z,29.06
2024-02-16T02:39:19.602Z,29.12
2024-02-16T02:40:19.590Z,29.12
2024-02-16T02:41:19.630Z,29.12
2024-02-16T02:42:19.752Z,29.08
2024-02-16T02:43:19.782Z,29.04
2024-02-16T02:44:19.867Z,29.07
2024-02-16T02:45:19.971Z,29.12
2024-02-16T02:46:20.003Z,29.09
2024-02-16T02:47:20.058Z,29.14
2024-02-16T02:48:20.258Z,29.08
2024-02-16T02:49:20.277Z,29.11
2024-02-16T02:50:20.349Z,29.08
2024-02-16T02:51:20.489Z,29.05
2024-02-16T02:52:20.423Z,29.08
2024-02-16T02:53:20.531Z,29.15
2024-02-16T02:54:20.570Z,29.07
2024-02-16T02:55:20.716Z,29.05
2024-02-16T02:56:20.684Z,29.06
2024-02-16T02:57:20.801Z,29.11
2024-02-16T02:58:20.823Z,29.12
2024-02-16T02:59:20.905Z,29.06
2024-02-16T03:00:21.054Z,29.14
2024-02-16T03:01:21.084Z,29.05
2024-02-16T03:02:21.075Z,29.12
2024-02-16T03:03:21.209Z,29.13
2024-02-16T03:04:21.204Z,29.11
2024-02-16T03:05:21.340Z,29.11
2024-02-16T03:06:21.456Z,29.10
2024-02-16T03:07:21.451Z,29.12
2024-02-16T03:08:21.437Z,29.10
2024-02-16T03:09:21.530Z,29.15
2024-02-16T03:10:21.582Z,29.12
2024-02-16T03:11:21.659Z,29.13
2024-02-16T03:12:21.696Z,29.07
2024-02-16T03:13:21.763Z,29.12
2024-02-16T03:14:21.806Z,29.10
2024-02-16T03:15:21.913Z,29.13
2024-02-16T03:16:21.888Z,29.10
2024-02-16T03:17:21.956Z,29.11
2024-02-16T03:18:22.212Z,29.12
2024-02-16T03:19:22.153Z,29.16
2024-02-16T03:20:22.161Z,29.12
2024-02-16T03:21:22.332Z,29.11
2024-02-16T03:22:22.296Z,29.10
2024-02-16T03:23:22.319Z,29.15
2024-02-16T03:24:22.402Z,29.10
2024-02-16T03:25:22.405Z,29.06
2024-02-16T03:26:22.469Z,29.07
2024-02-16T03:27:22.562Z,29.16
2024-02-16T03:28:22.558Z,29.10
2024-02-16T03:29:22.605Z,29.09
2024-02-16T03:30:22.680Z,29.09
2024-02-16T03:31:22.713Z,29.06
2024-02-16T03:32:22.759Z,29.11
2024-02-16T03:33:23.009Z,29.13
2024-02-16T03:34:23.144Z,29.12
2024-02-16T03:35:22.952Z,29.10
2024-02-16T03:36:23.036Z,29.12
2024-02-16T03:37:23.075Z,29.12
2024-02-16T03:38:23.125Z,29.07
2024-02-16T03:39:23.240Z,29.13
2024-02-16T03:40:23.275Z,29.13
2024-02-16T03:41:23.333Z,29.09
2024-02-16T03:42:23.467Z,29.12
2024-02-16T03:43:23.452Z,29.10
2024-02-16T03:44:23.517Z,29.12
2024-02-16T03:45:23.679Z,29.12
2024-02-16T03:46:23.665Z,29.12
2024-02-16T03:47:23.755Z,29.12
2024-02-16T03:48:23.877Z,29.11
2024-02-16T03:49:24.036Z,29.13
2024-02-16T03:50:24.096Z,29.12
2024-02-16T03:51:24.037Z,29.12
2024-02-16T03:52:24.023Z,29.05
2024-02-16T03:53:24.101Z,29.09
2024-02-16T03:54:24.256Z,29.12
2024-02-16T03:55:24.261Z,29.10
2024-02-16T03:56:24.329Z,29.09
2024-02-16T03:57:24.457Z,29.09
2024-02-16T03:58:24.444Z,29.07
2024-02-16T03:59:24.482Z,29.07
2024-02-16T04:00:24.686Z,29.09
2024-02-16T04:01:24.707Z,29.10
2024-02-16T04:02:24.729Z,29.10
2024-02-16T04:03:24.777Z,29.11
2024-02-16T04:04:24.919Z,29.11
2024-02-16T04:05:24.954Z,29.09
2024-02-16T04:06:25.049Z,29.02
2024-02-16T04:07:25.132Z,29.06
2024-02-16T04:08:25.176Z,29.12
2024-02-16T04:09:25.235Z,29.10
2024-02-16T04:10:25.294Z,29.03
2024-02-16T04:11:25.389Z,29.09
2024-02-16T04:12:25.459Z,29.09
2024-02-16T04:13:25.455Z,29.10
2024-02-16T04:14:25.508Z,29.05
2024-02-16T04:15:25.621Z,29.10
2024-02-16T04:16:25.683Z,29.06
2024-02-16T04:17:25.837Z,29.05
2024-02-16T04:18:33.110Z,29.14
2024-02-16T04:19:33.160Z,29.14
2024-02-16T04:20:32.983Z,29.06
2024-02-16T04:21:33.099Z,29.13
2024-02-16T04:22:32.999Z,29.10
2024-02-16T04:23:32.962Z,29.12
2024-02-16T04:24:33.070Z,29.09
2024-02-16T04:25:32.987Z,29.13
2024-02-16T04:26:33.021Z,29.10
2024-02-16T04:27:33.038Z,29.07
2024-02-16T04:28:32.985Z,29.07
2024-02-16T04:29:33.000Z,29.09
2024-02-16T04:30:33.136Z,29.09
2024-02-16T04:31:40.348Z,29.17
2024-02-16T04:32:40.414Z,29.11
2024-02-16T04:33:40.466Z,29.04
2024-02-16T04:34:40.396Z,29.10
2024-02-16T04:35:40.353Z,29.07
2024-02-16T04:36:40.308Z,29.11
2024-02-16T04:37:40.317Z,29.11
2024-02-16T04:38:40.320Z,29.10
2024-02-16T04:39:40.383Z,29.09
2024-02-16T04:40:40.311Z,29.10
2024-02-16T04:41:40.337Z,29.07
2024-02-16T04:42:40.314Z,29.13
2024-02-16T04:43:40.299Z,29.10
2024-02-16T04:44:40.319Z,29.14
2024-02-16T04:45:40.378Z,29.13
2024-02-16T04:46:40.319Z,29.06
2024-02-16T04:47:40.367Z,29.10
2024-02-16T04:48:40.446Z,29.10
2024-02-16T04:49:40.391Z,29.07
2024-02-16T04:50:40.345Z,29.10
2024-02-16T04:51:40.359Z,29.13
2024-02-16T04:52:40.359Z,29.10
2024-02-16T04:53:40.328Z,29.12
2024-02-16T04:54:40.318Z,29.09
2024-02-16T04:55:40.386Z,29.04
2024-02-16T04:56:40.330Z,29.10
2024-02-16T04:57:40.392Z,29.07
2024-02-16T04:58:40.334Z,29.09
2024-02-16T04:59:40.353Z,29.03
2024-02-16T05:00:40.473Z,29.06
2024-02-16T05:01:40.516Z,29.11
2024-02-16T05:02:40.456Z,29.06
2024-02-16T05:03:40.538Z,29.11
2024-02-16T05:04:40.554Z,29.11
2024-02-16T05:05:40.620Z,29.09
2024-02-16T05:06:40.750Z,29.11
2024-02-16T05:07:40.698Z,29.04
2024-02-16T05:08:40.775Z,29.04
2024-02-16T05:09:40.887Z,29.11
2024-02-16T05:10:40.895Z,29.03
2024-02-16T05:11:40.896Z,29.07
2024-02-16T05:12:40.978Z,29.04
2024-02-16T05:13:40.947Z,29.07
2024-02-16T05:14:41.029Z,28.99
2024-02-16T05:15:41.126Z,29.08
2024-02-16T05:16:41.156Z,29.04
2024-02-16T05:17:41.211Z,29.07
2024-02-16T05:18:41.323Z,29.06
2024-02-16T05:19:41.274Z,29.09
2024-02-16T05:20:41.325Z,29.06
2024-02-16T05:21:41.373Z,29.07
2024-02-16T05:22:41.430Z,29.06
2024-02-16T05:23:41.503Z,29.07
2024-02-16T05:24:41.525Z,29.09
2024-02-16T05:25:41.574Z,29.06
2024-02-16T05:26:41.658Z,29.10
2024-02-16T05:27:41.678Z,29.04
2024-02-16T05:28:41.780Z,29.07
2024-02-16T05:29:41.838Z,29.11
2024-02-16T05:30:41.959Z,29.06
2024-02-16T05:31:41.923Z,29.06
2024-02-16T05:32:41.987Z,29.07
2024-02-16T05:33:42.183Z,29.10
2024-02-16T05:34:42.171Z,29.06
2024-02-16T05:35:42.140Z,29.06
2024-02-16T05:36:42.142Z,28.99
2024-02-16T05:37:42.206Z,29.06
2024-02-16T05:38:42.268Z,29.01
2024-02-16T05:39:42.342Z,29.09
2024-02-16T05:40:42.423Z,29.01
2024-02-16T05:41:42.465Z,29.00
2024-02-16T05:42:42.565Z,29.01
2024-02-16T05:43:42.596Z,29.04
2024-02-16T05:44:42.717Z,29.04
2024-02-16T05:45:42.897Z,29.11
2024-02-16T05:46:43.446Z,29.07
2024-02-16T05:47:42.823Z,29.01
2024-02-16T05:48:42.861Z,29.01
2024-02-16T05:49:42.990Z,29.06
2024-02-16T05:50:42.975Z,29.10
2024-02-16T05:51:43.067Z,29.21
2024-02-16T05:52:43.031Z,30.26
2024-02-16T05:53:43.027Z,30.83
2024-02-16T05:54:43.201Z,31.11
2024-02-16T05:55:43.080Z,31.48
2024-02-16T05:56:43.109Z,31.62
2024-02-16T05:57:43.219Z,32.11
2024-02-16T05:58:43.239Z,32.51
2024-02-16T05:59:43.389Z,32.77
2024-02-16T06:00:43.300Z,33.16
2024-02-16T06:01:43.463Z,33.57
2024-02-16T06:02:43.415Z,33.69
2024-02-16T06:03:43.462Z,33.96
2024-02-16T06:04:43.624Z,34.05
2024-02-16T06:05:43.621Z,34.28
2024-02-16T06:06:43.694Z,34.53
2024-02-16T06:07:43.655Z,34.66
2024-02-16T06:08:43.713Z,34.89
2024-02-16T06:09:43.811Z,35.07
2024-02-16T06:10:43.913Z,35.14
2024-02-16T06:11:43.879Z,35.60
2024-02-16T06:12:43.974Z,35.89
2024-02-16T06:13:44.025Z,36.57
2024-02-16T06:14:44.087Z,36.77
2024-02-16T06:15:44.566Z,36.91
2024-02-16T06:16:44.199Z,37.08
2024-02-16T06:17:44.403Z,37.12
2024-02-16T06:18:44.520Z,36.83
2024-02-16T06:19:44.587Z,37.50
2024-02-16T06:20:44.546Z,37.16
2024-02-16T06:21:44.582Z,37.12
2024-02-16T06:22:44.648Z,37.29
2024-02-16T06:23:44.707Z,37.34
2024-02-16T06:24:44.845Z,37.48
2024-02-16T06:25:44.874Z,37.75
2024-02-16T06:26:44.956Z,37.78
2024-02-16T06:27:45.278Z,37.96
2024-02-16T06:28:45.028Z,37.91
2024-02-16T06:29:45.111Z,38.02
2024-02-16T06:30:45.271Z,38.16
2024-02-16T06:31:45.250Z,38.42
2024-02-16T06:32:45.363Z,38.52
2024-02-16T06:33:45.549Z,38.37
2024-02-16T06:34:45.481Z,38.41
2024-02-16T06:35:45.530Z,38.53
2024-02-16T06:36:45.632Z,39.12
2024-02-16T06:37:45.659Z,39.32
2024-02-16T06:38:45.691Z,39.56
2024-02-16T06:39:45.836Z,39.57
2024-02-16T06:40:45.851Z,40.06
2024-02-16T06:41:45.879Z,40.14
2024-02-16T06:42:45.956Z,40.46
2024-02-16T06:43:46.026Z,40.61
2024-02-16T06:44:46.058Z,40.94
2024-02-16T06:45:46.195Z,40.96
2024-02-16T06:46:46.209Z,41.42
2024-02-16T06:47:46.329Z,41.75
2024-02-16T06:48:46.352Z,41.77
2024-02-16T06:49:46.403Z,41.81
2024-02-16T06:50:46.479Z,41.72
2024-02-16T06:51:46.804Z,42.03
2024-02-16T06:52:46.546Z,42.04
2024-02-16T06:53:46.614Z,42.13
2024-02-16T06:54:46.712Z,42.42
2024-02-16T06:55:46.713Z,42.52
2024-02-16T06:56:46.743Z,42.69
2024-02-16T06:57:46.847Z,43.07
2024-02-16T06:58:46.865Z,43.21
2024-02-16T06:59:46.946Z,43.23
2024-02-16T07:00:47.089Z,43.39
2024-02-16T07:01:47.067Z,43.43
2024-02-16T07:02:47.077Z,43.60
2024-02-16T07:03:48.151Z,43.67
2024-02-16T07:04:47.216Z,43.73
2024-02-16T07:05:47.318Z,43.64
2024-02-16T07:06:47.402Z,43.90
2024-02-16T07:07:47.376Z,44.16
2024-02-16T07:08:47.436Z,44.06
2024-02-16T07:09:47.546Z,43.95
2024-02-16T07:10:47.571Z,44.10
2024-02-16T07:11:49.656Z,44.37
2024-02-16T07:12:47.667Z,44.53
2024-02-16T07:13:47.641Z,44.63
2024-02-16T07:14:47.606Z,44.70
2024-02-16T07:15:47.661Z,44.74
2024-02-16T07:16:47.625Z,45.08
2024-02-16T07:17:47.632Z,45.22
2024-02-16T07:18:47.792Z,45.13
2024-02-16T07:19:47.639Z,45.10
2024-02-16T07:20:50.543Z,45.06
2024-02-16T07:21:47.593Z,45.11
2024-02-16T07:22:47.620Z,45.30
2024-02-16T07:23:47.580Z,45.43
2024-02-16T07:24:47.597Z,45.44
2024-02-16T07:25:47.603Z,45.52
2024-02-16T07:26:47.575Z,45.51
2024-02-16T07:27:47.614Z,45.92
2024-02-16T07:28:47.589Z,46.06
2024-02-16T07:29:47.610Z,45.89
2024-02-16T07:30:47.660Z,46.13
2024-02-16T07:31:47.619Z,46.12
2024-02-16T07:32:47.634Z,46.19
2024-02-16T07:33:47.678Z,46.24
2024-02-16T07:34:47.673Z,46.25
2024-02-16T07:35:47.649Z,46.26
2024-02-16T07:36:47.632Z,46.45
2024-02-16T07:37:47.607Z,46.59
2024-02-16T07:38:47.651Z,46.78
2024-02-16T07:39:47.679Z,46.81
2024-02-16T07:40:47.635Z,46.90
2024-02-16T07:41:47.629Z,47.09
2024-02-16T07:42:47.650Z,47.24
2024-02-16T07:43:47.623Z,47.38
2024-02-16T07:44:47.656Z,47.47
2024-02-16T07:45:48.240Z,47.49
2024-02-16T07:46:47.684Z,47.48
2024-02-16T07:47:47.707Z,47.59
2024-02-16T07:48:47.829Z,47.50
2024-02-16T07:49:47.683Z,47.40
2024-02-16T07:50:47.636Z,47.69
2024-02-16T07:51:47.702Z,47.84
2024-02-16T07:52:47.635Z,47.96
2024-02-16T07:53:47.735Z,48.20
2024-02-16T07:54:47.629Z,48.41
2024-02-16T07:55:47.701Z,48.49
2024-02-16T07:56:47.618Z,48.52
2024-02-16T07:57:47.804Z,48.57
2024-02-16T07:58:47.721Z,48.54
2024-02-16T07:59:47.652Z,48.51
2024-02-16T08:00:47.718Z,48.52
2024-02-16T08:01:47.752Z,48.45
2024-02-16T08:02:47.694Z,48.39
2024-02-16T08:03:47.771Z,48.49
2024-02-16T08:04:47.797Z,48.60
2024-02-16T08:05:47.920Z,48.75
2024-02-16T08:06:47.959Z,48.79
2024-02-16T08:07:47.882Z,48.89
2024-02-16T08:08:47.905Z,48.99
2024-02-16T08:09:49.125Z,49.07
2024-02-16T08:10:48.002Z,49.16
2024-02-16T08:11:48.021Z,49.22
2024-02-16T08:12:47.970Z,49.13
2024-02-16T08:13:47.966Z,49.12
2024-02-16T08:14:48.025Z,49.08
2024-02-16T08:15:48.074Z,49.11
2024-02-16T08:16:48.069Z,49.28
2024-02-16T08:17:48.209Z,49.37
2024-02-16T08:18:48.327Z,49.45
2024-02-16T08:19:48.267Z,49.56
2024-02-16T08:20:48.220Z,49.56
2024-02-16T08:21:48.229Z,49.71
2024-02-16T08:22:48.220Z,49.83
2024-02-16T08:23:48.282Z,49.86
2024-02-16T08:24:48.345Z,49.87
2024-02-16T08:25:48.348Z,49.92
2024-02-16T08:26:48.351Z,49.86
2024-02-16T08:27:48.439Z,49.78
2024-02-16T08:28:48.425Z,49.81
2024-02-16T08:29:48.483Z,49.82
2024-02-16T08:30:48.511Z,49.94
2024-02-16T08:31:48.524Z,50.03
2024-02-16T08:32:48.601Z,50.11
2024-02-16T08:33:49.089Z,50.17
2024-02-16T08:34:48.675Z,50.24
2024-02-16T08:35:48.679Z,50.40
2024-02-16T08:36:48.601Z,50.49
2024-02-16T08:37:48.670Z,50.50
2024-02-16T08:38:48.693Z,50.48
2024-02-16T08:39:48.719Z,50.47
2024-02-16T08:40:48.722Z,50.44
2024-02-16T08:41:48.740Z,50.38
2024-02-16T08:42:49.011Z,50.30
2024-02-16T08:43:48.787Z,50.28
2024-02-16T08:44:48.831Z,50.38
2024-02-16T08:45:48.964Z,50.40
2024-02-16T08:46:48.876Z,50.53
2024-02-16T08:47:51.624Z,50.70
2024-02-16T08:48:49.166Z,50.83
2024-02-16T08:49:48.982Z,50.76
2024-02-16T08:50:48.938Z,50.90
2024-02-16T08:51:48.943Z,50.84
2024-02-16T08:52:48.976Z,50.92
2024-02-16T08:53:48.891Z,50.99
2024-02-16T08:54:48.989Z,51.01
2024-02-16T08:55:48.971Z,51.02
2024-02-16T08:56:48.912Z,50.87
2024-02-16T08:57:48.946Z,50.84
2024-02-16T08:58:48.973Z,50.89
2024-02-16T08:59:48.926Z,50.96
2024-02-16T09:00:49.072Z,51.01
2024-02-16T09:01:48.925Z,51.22
2024-02-16T09:02:48.912Z,51.34
2024-02-16T09:03:49.071Z,51.22
2024-02-16T09:04:49.248Z,51.35
2024-02-16T09:05:49.016Z,51.48
2024-02-16T09:06:48.977Z,51.46
2024-02-16T09:07:48.936Z,51.59
2024-02-16T09:08:49.007Z,51.50
2024-02-16T09:09:48.941Z,51.47
2024-02-16T09:10:48.967Z,51.42
2024-02-16T09:11:48.921Z,51.34
2024-02-16T09:12:48.956Z,51.54
2024-02-16T09:13:48.929Z,51.55
2024-02-16T09:14:48.930Z,51.51
2024-02-16T09:15:49.034Z,51.64
2024-02-16T09:16:48.944Z,51.77
2024-02-16T09:17:48.933Z,51.81
2024-02-16T09:18:48.972Z,51.87
2024-02-16T09:19:48.966Z,51.86
2024-02-16T09:20:48.949Z,51.82
2024-02-16T09:21:48.958Z,51.88
2024-02-16T09:22:48.910Z,51.85
2024-02-16T09:23:48.919Z,51.82
2024-02-16T09:24:48.956Z,51.82
2024-02-16T09:25:48.982Z,51.91
2024-02-16T09:26:48.970Z,51.93
2024-02-16T09:27:49.049Z,51.95
2024-02-16T09:28:48.950Z,51.88
2024-02-16T09:29:48.965Z,51.89
2024-02-16T09:30:48.935Z,51.74
2024-02-16T09:31:48.943Z,51.65
2024-02-16T09:32:48.969Z,51.55
2024-02-16T09:33:49.027Z,51.52
2024-02-16T09:34:49.072Z,51.58
2024-02-16T09:35:48.931Z,51.67
2024-02-16T09:36:48.977Z,51.67
2024-02-16T09:37:48.940Z,51.61
2024-02-16T09:38:49.031Z,51.54
2024-02-16T09:39:48.979Z,51.64
2024-02-16T09:40:48.959Z,51.68
2024-02-16T09:41:48.978Z,51.72
2024-02-16T09:42:48.979Z,51.79
2024-02-16T09:43:48.973Z,51.86
2024-02-16T09:44:48.977Z,51.96
2024-02-16T09:45:48.965Z,51.94
2024-02-16T09:46:50.592Z,51.94
2024-02-16T09:47:57.016Z,51.98
2024-02-16T09:48:50.290Z,51.91
2024-02-16T09:49:49.110Z,51.95
2024-02-16T09:50:49.062Z,51.85
2024-02-16T09:51:49.036Z,51.73
2024-02-16T09:52:48.970Z,51.72
2024-02-16T09:53:48.978Z,51.60
2024-02-16T09:54:49.052Z,51.56
2024-02-16T09:55:48.956Z,51.57
2024-02-16T09:56:49.009Z,51.48
2024-02-16T09:57:48.971Z,51.29
2024-02-16T09:58:48.962Z,51.30
2024-02-16T09:59:48.958Z,51.36
2024-02-16T10:00:49.062Z,51.42
2024-02-16T10:01:49.041Z,51.56
2024-02-16T10:02:49.005Z,51.63
2024-02-16T10:03:49.004Z,51.61
2024-02-16T10:04:49.125Z,51.66
2024-02-16T10:05:49.147Z,51.59
2024-02-16T10:06:49.152Z,51.54
2024-02-16T10:07:49.071Z,51.55
2024-02-16T10:08:48.988Z,51.62
2024-02-16T10:09:49.024Z,51.70
2024-02-16T10:10:48.975Z,51.77
2024-02-16T10:11:49.035Z,51.68
2024-02-16T10:12:49.106Z,51.66
2024-02-16T10:13:48.985Z,51.69
2024-02-16T10:14:48.980Z,51.57
2024-02-16T10:15:49.007Z,51.44
2024-02-16T10:16:49.015Z,51.38
2024-02-16T10:17:49.073Z,51.33
2024-02-16T10:18:49.112Z,51.35
2024-02-16T10:19:49.167Z,51.41
2024-02-16T10:20:49.016Z,51.39
2024-02-16T10:21:49.036Z,51.33
2024-02-16T10:22:49.330Z,51.34
2024-02-16T10:23:49.000Z,51.36
2024-02-16T10:24:49.068Z,51.40
2024-02-16T10:25:49.012Z,51.44
2024-02-16T10:26:49.009Z,51.43
2024-02-16T10:27:48.996Z,51.54
2024-02-16T10:28:49.017Z,51.58
2024-02-16T10:29:49.003Z,51.59
2024-02-16T10:30:49.030Z,51.63
2024-02-16T10:31:49.028Z,51.67
2024-02-16T10:32:49.057Z,51.69
2024-02-16T10:33:49.201Z,51.66
2024-02-16T10:34:49.090Z,51.59
2024-02-16T10:35:48.995Z,51.50
2024-02-16T10:36:49.030Z,51.53
2024-02-16T10:37:48.987Z,51.59
2024-02-16T10:38:48.994Z,51.66
2024-02-16T10:39:49.113Z,51.68
2024-02-16T10:40:49.000Z,51.76
2024-02-16T10:41:49.006Z,51.69
2024-02-16T10:42:49.006Z,51.70
2024-02-16T10:43:49.015Z,51.79
2024-02-16T10:44:49.014Z,51.79
2024-02-16T10:45:49.045Z,51.80
2024-02-16T10:46:49.052Z,51.79
2024-02-16T10:47:49.058Z,51.75
2024-02-16T10:48:49.311Z,51.68
2024-02-16T10:49:49.165Z,51.78
2024-02-16T10:50:49.181Z,51.72
2024-02-16T10:51:49.147Z,51.78
2024-02-16T10:52:49.041Z,51.79
2024-02-16T10:53:49.032Z,51.86
2024-02-16T10:54:49.081Z,51.88
2024-02-16T10:55:49.024Z,51.83
2024-02-16T10:56:49.065Z,51.76
2024-02-16T10:57:49.106Z,51.80
2024-02-16T10:58:49.009Z,51.82
2024-02-16T10:59:49.096Z,51.81
2024-02-16T11:00:49.131Z,51.77
2024-02-16T11:01:49.126Z,51.70
2024-02-16T11:02:49.042Z,51.60
2024-02-16T11:03:49.127Z,51.44
2024-02-16T11:04:49.060Z,51.41
2024-02-16T11:05:49.128Z,51.27
2024-02-16T11:06:49.250Z,51.16
2024-02-16T11:07:49.064Z,51.01
2024-02-16T11:08:49.064Z,50.94
2024-02-16T11:09:49.195Z,50.96
2024-02-16T11:10:49.066Z,50.85
2024-02-16T11:11:49.062Z,50.82
2024-02-16T11:12:49.089Z,50.80
2024-02-16T11:13:49.076Z,50.85
2024-02-16T11:14:49.094Z,50.86
2024-02-16T11:15:49.146Z,50.81
2024-02-16T11:16:49.107Z,50.78
2024-02-16T11:17:49.104Z,50.65
2024-02-16T11:18:49.198Z,50.55
2024-02-16T11:19:49.318Z,50.41
2024-02-16T11:20:49.095Z,50.15
2024-02-16T11:21:49.127Z,49.99
2024-02-16T11:22:49.091Z,49.91
2024-02-16T11:23:49.118Z,49.89
2024-02-16T11:24:49.242Z,49.83
2024-02-16T11:25:49.101Z,49.85
2024-02-16T11:26:49.122Z,49.86
2024-02-16T11:27:49.185Z,49.85
2024-02-16T11:28:49.113Z,49.84
2024-02-16T11:29:49.154Z,49.91
2024-02-16T11:30:50.700Z,49.89
2024-02-16T11:31:49.145Z,49.85
2024-02-16T11:32:49.240Z,49.80
2024-02-16T11:33:49.406Z,49.67
2024-02-16T11:34:49.733Z,49.38
2024-02-16T11:35:49.191Z,49.33
2024-02-16T11:36:49.249Z,49.23
2024-02-16T11:37:49.182Z,49.17
2024-02-16T11:38:49.183Z,49.14
2024-02-16T11:39:49.310Z,49.13
2024-02-16T11:40:49.212Z,49.14
2024-02-16T11:41:49.221Z,49.21
2024-02-16T11:42:49.208Z,49.15
2024-02-16T11:43:49.208Z,49.20
2024-02-16T11:44:49.208Z,49.25
2024-02-16T11:45:49.280Z,49.25
2024-02-16T11:46:49.231Z,49.25
2024-02-16T11:47:49.323Z,49.18
2024-02-16T11:48:49.581Z,49.09
2024-02-16T11:49:49.379Z,48.77
2024-02-16T11:50:49.239Z,48.65
2024-02-16T11:51:49.252Z,48.65
2024-02-16T11:52:49.250Z,48.56
2024-02-16T11:53:49.255Z,48.57
2024-02-16T11:54:49.310Z,48.63
2024-02-16T11:55:49.276Z,48.60
2024-02-16T11:56:49.278Z,48.57
2024-02-16T11:57:49.336Z,48.65
2024-02-16T11:58:49.322Z,48.69
2024-02-16T11:59:49.311Z,48.74
2024-02-16T12:00:49.491Z,48.75
2024-02-16T12:01:49.382Z,48.76
2024-02-16T12:02:49.310Z,48.76
2024-02-16T12:03:49.318Z,48.57
2024-02-16T12:04:55.518Z,48.37
2024-02-16T12:05:50.365Z,48.32
2024-02-16T12:06:49.583Z,48.31
2024-02-16T12:07:49.533Z,48.27
2024-02-16T12:08:49.350Z,48.23
2024-02-16T12:09:49.332Z,48.27
2024-02-16T12:10:49.407Z,48.19
2024-02-16T12:11:49.359Z,48.26
2024-02-16T12:12:49.565Z,48.26
2024-02-16T12:13:49.335Z,48.36
2024-02-16T12:14:49.342Z,48.44
2024-02-16T12:15:49.419Z,48.47
2024-02-16T12:16:49.380Z,48.39
2024-02-16T12:17:49.411Z,48.30
2024-02-16T12:18:49.553Z,48.26
2024-02-16T12:19:49.442Z,48.16
2024-02-16T12:20:49.327Z,47.95
2024-02-16T12:21:49.358Z,47.99
2024-02-16T12:22:49.350Z,47.88
2024-02-16T12:23:49.403Z,47.70
2024-02-16T12:24:49.380Z,47.70
2024-02-16T12:25:49.366Z,47.69
2024-02-16T12:26:49.390Z,47.67
2024-02-16T12:27:49.423Z,47.67
2024-02-16T12:28:49.398Z,47.67
2024-02-16T12:29:49.368Z,47.72
2024-02-16T12:30:49.430Z,47.76
2024-02-16T12:31:49.396Z,47.95
2024-02-16T12:32:49.412Z,48.04
2024-02-16T12:33:49.562Z,48.08
2024-02-16T12:34:49.537Z,48.06
2024-02-16T12:35:49.381Z,48.03
2024-02-16T12:36:51.078Z,47.99
2024-02-16T12:37:49.401Z,47.95
2024-02-16T12:38:49.380Z,47.91
2024-02-16T12:39:49.498Z,47.79
2024-02-16T12:40:49.449Z,47.75
2024-02-16T12:41:49.459Z,47.75
2024-02-16T12:42:49.682Z,47.75
2024-02-16T12:43:49.518Z,47.76
2024-02-16T12:44:49.511Z,47.70
2024-02-16T12:45:49.646Z,47.77
2024-02-16T12:46:49.530Z,47.88
2024-02-16T12:47:49.596Z,47.86
2024-02-16T12:48:50.868Z,47.91
2024-02-16T12:49:49.687Z,47.98
2024-02-16T12:50:49.628Z,47.93
2024-02-16T12:51:49.672Z,47.93
2024-02-16T12:52:55.169Z,47.78